Time;durP1;ratioP1;P1;durP2;ratioP2;P2;SDS_P1;SDS_P2;PMS_P1;PMS_P2;Temp;Humidity;BMP_temperature;BMP_pressure;BME280_temperature;BME280_humidity;BME280_pressure;Samples;Min_cycle;Max_cycle;Signal;HPM_P1;HPM_P2
2022/03/05 00:00:13;;;;;;;9.57;6.60;;;;;;;1.45;55.46;151739.47;5068210;28;20441;-78
2022/03/05 00:02:49;;;;;;;10.17;6.83;;;;;;;1.40;55.61;151726.63;5068257;28;20546;-78
2022/03/05 00:05:27;;;;;;;13.70;7.43;;;;;;;1.40;55.01;151727.94;5063188;28;20452;-79
2022/03/05 00:08:03;;;;;;;9.40;6.30;;;;;;;1.47;55.19;151744.59;5076306;28;20948;-79
2022/03/05 00:10:38;;;;;;;10.93;6.73;;;;;;;1.35;55.53;151715.03;5068519;28;20445;-78
2022/03/05 00:13:14;;;;;;;12.17;7.20;;;;;;;1.45;55.43;151739.47;5064560;28;20441;-78
2022/03/05 00:15:51;;;;;;;8.40;6.07;;;;;;;1.36;55.52;151716.31;5048526;28;20472;-78
2022/03/05 00:18:27;;;;;;;8.17;6.50;;;;;;;1.22;55.88;151682.94;5045243;28;20873;-78
2022/03/05 00:21:04;;;;;;;8.40;6.00;;;;;;;1.19;56.26;151675.22;5064986;28;20439;-78
2022/03/05 00:23:39;;;;;;;9.73;6.20;;;;;;;1.27;56.26;151694.53;5066111;28;20464;-78
2022/03/05 00:26:16;;;;;;;9.67;6.57;;;;;;;1.30;56.08;151702.19;5067157;28;20444;-78
2022/03/05 00:28:52;;;;;;;7.40;6.10;;;;;;;1.30;55.99;151700.94;5066179;28;20460;-78
2022/03/05 00:31:27;;;;;;;7.60;5.93;;;;;;;1.42;55.74;151731.75;5068261;28;20440;-78
2022/03/05 00:34:03;;;;;;;8.20;5.60;;;;;;;1.34;56.28;151712.50;5066146;28;20458;-78
2022/03/05 00:36:40;;;;;;;9.23;5.83;;;;;;;1.23;56.55;151685.53;5064797;28;20466;-78
2022/03/05 00:39:15;;;;;;;8.83;6.30;;;;;;;1.20;56.27;151677.81;5057968;28;21329;-78
2022/03/05 00:41:51;;;;;;;9.70;6.83;;;;;;;1.07;56.98;151643.13;5065091;28;20481;-78
2022/03/05 00:44:26;;;;;;;8.93;6.37;;;;;;;1.06;57.31;151641.81;5051107;28;20480;-78
2022/03/05 00:47:02;;;;;;;8.13;5.67;;;;;;;1.04;57.21;151635.41;5063932;28;20441;-78
2022/03/05 00:49:38;;;;;;;7.50;6.23;;;;;;;1.05;57.68;151638.00;5065531;28;20980;-78
2022/03/05 00:52:15;;;;;;;7.07;5.80;;;;;;;1.02;57.44;151631.56;5066542;28;20444;-78
2022/03/05 00:54:50;;;;;;;9.17;6.53;;;;;;;1.08;57.50;151647.00;5069228;28;20497;-78
2022/03/05 00:57:26;;;;;;;9.50;6.10;;;;;;;1.05;57.59;151639.28;5062974;28;20562;-79
2022/03/05 01:00:01;;;;;;;8.33;6.37;;;;;;;1.03;57.66;151632.88;5048016;28;21065;-78
2022/03/05 01:02:38;;;;;;;8.33;6.20;;;;;;;0.99;58.35;151623.84;5060455;28;20442;-78
2022/03/05 01:05:13;;;;;;;8.63;6.57;;;;;;;1.08;58.04;151645.69;5047190;28;20465;-78
2022/03/05 01:07:50;;;;;;;8.70;5.77;;;;;;;1.08;58.00;151647.00;5065497;28;20444;-78
2022/03/05 01:10:26;;;;;;;11.17;6.80;;;;;;;0.98;58.36;151621.28;5066474;28;20481;-78
2022/03/05 01:13:03;;;;;;;8.57;6.00;;;;;;;1.06;58.19;151641.81;5064384;28;20452;-78
2022/03/05 01:15:38;;;;;;;9.03;5.73;;;;;;;1.03;58.24;151634.09;5066932;28;20468;-78
2022/03/05 01:18:15;;;;;;;10.17;6.33;;;;;;;1.03;58.82;151634.09;5066517;28;20923;-78
2022/03/05 01:20:50;;;;;;;10.97;6.73;;;;;;;0.92;58.75;151605.91;5061196;28;20938;-78
2022/03/05 01:23:27;;;;;;;10.40;6.20;;;;;;;0.97;58.96;151618.72;5067723;28;20544;-78
2022/03/05 01:26:03;;;;;;;10.70;5.93;;;;;;;0.94;59.01;151611.03;5063843;28;20444;-78
2022/03/05 01:28:39;;;;;;;8.47;6.50;;;;;;;0.87;59.34;151593.06;5064741;28;20457;-78
2022/03/05 01:31:15;;;;;;;8.00;5.40;;;;;;;0.84;59.77;151585.34;5062660;28;20543;-78
2022/03/05 01:33:51;;;;;;;9.40;5.53;;;;;;;0.78;59.83;151568.63;5044898;28;20462;-78
2022/03/05 01:36:26;;;;;;;9.00;6.53;;;;;;;0.76;59.29;151564.81;5050106;28;20973;-78
2022/03/05 01:39:03;;;;;;;10.27;6.10;;;;;;;0.76;59.59;151563.50;5062210;28;20450;-78
2022/03/05 01:41:39;;;;;;;10.30;7.00;;;;;;;0.66;60.19;151539.13;5046452;28;20558;-78
2022/03/05 01:44:14;;;;;;;9.67;7.00;;;;;;;0.61;60.09;151526.25;5066524;28;20461;-78
2022/03/05 01:46:50;;;;;;;8.23;6.50;;;;;;;0.70;60.17;151549.38;5063475;28;20443;-78
2022/03/05 01:49:25;;;;;;;11.30;7.10;;;;;;;0.77;59.98;151567.34;5075732;28;20984;-78
2022/03/05 01:52:02;;;;;;;9.17;6.70;;;;;;;0.64;60.27;151533.94;5086493;28;20534;-78
2022/03/05 01:54:39;;;;;;;9.40;6.60;;;;;;;0.57;60.13;151516.00;5087032;28;20441;-77
2022/03/05 01:57:15;;;;;;;8.33;5.80;;;;;;;0.70;60.21;151549.38;5069767;28;20459;-78
2022/03/05 01:59:51;;;;;;;8.60;5.57;;;;;;;0.58;60.62;151518.59;5065978;28;20441;-77
2022/03/05 02:02:26;;;;;;;10.80;7.00;;;;;;;0.50;60.78;151499.28;5055293;28;20536;-78
2022/03/05 02:05:01;;;;;;;10.80;6.43;;;;;;;0.53;60.79;151507.00;5064983;28;20452;-78
2022/03/05 02:07:38;;;;;;;8.70;6.30;;;;;;;0.49;61.07;151496.75;5064224;28;20456;-78
2022/03/05 02:10:15;;;;;;;8.93;6.13;;;;;;;0.51;61.06;151500.56;5081564;28;20434;-78
2022/03/05 02:12:50;;;;;;;9.37;6.83;;;;;;;0.42;61.40;151478.78;5067738;28;20442;-78
2022/03/05 02:15:26;;;;;;;8.33;6.30;;;;;;;0.42;61.50;151477.50;5067517;28;20448;-78
2022/03/05 02:18:02;;;;;;;7.40;6.07;;;;;;;0.54;60.49;151508.28;5065393;28;20479;-78
2022/03/05 02:20:41;;;;;;;11.63;6.37;;;;;;;0.52;61.01;151503.16;5066942;28;20456;-78
2022/03/05 02:23:17;;;;;;;11.40;6.47;;;;;;;0.45;60.60;151486.44;5083636;28;20467;-78
2022/03/05 02:25:54;;;;;;;8.47;6.30;;;;;;;0.42;60.93;151477.50;5065004;28;20953;-78
2022/03/05 02:28:31;;;;;;;9.53;5.73;;;;;;;0.38;60.86;151468.50;5063150;28;20813;-78
2022/03/05 02:31:07;;;;;;;9.80;6.20;;;;;;;0.34;60.92;151456.97;5048008;28;20490;-78
2022/03/05 02:33:43;;;;;;;8.93;6.63;;;;;;;0.27;61.58;151438.97;5046559;28;20450;-77
2022/03/05 02:36:20;;;;;;;9.60;6.57;;;;;;;0.38;60.73;151468.50;5051088;28;20453;-77
2022/03/05 02:38:55;;;;;;;9.10;6.27;;;;;;;0.32;61.22;151453.06;5068471;28;20458;-77
2022/03/05 02:41:30;;;;;;;9.70;6.53;;;;;;;0.28;61.59;151442.84;5056056;28;20460;-77
2022/03/05 02:44:06;;;;;;;9.33;6.13;;;;;;;0.32;61.48;151453.06;5052618;28;20777;-77
2022/03/05 02:46:42;;;;;;;10.07;6.93;;;;;;;0.36;61.52;151462.09;5066067;28;20910;-77
2022/03/05 02:49:18;;;;;;;13.60;5.77;;;;;;;0.40;61.36;151473.63;5086003;28;20978;-78
2022/03/05 02:51:54;;;;;;;10.60;5.97;;;;;;;0.38;61.15;151467.19;5065212;28;20469;-77
2022/03/05 02:54:30;;;;;;;8.97;6.57;;;;;;;0.24;61.10;151432.53;5084555;28;20469;-78
2022/03/05 02:57:06;;;;;;;8.37;6.40;;;;;;;0.23;61.44;151428.72;5068389;28;20490;-77
2022/03/05 02:59:43;;;;;;;9.87;7.40;;;;;;;0.21;61.85;151423.59;5071301;28;20944;-78
2022/03/05 03:02:18;;;;;;;11.93;6.40;;;;;;;0.16;62.19;151410.75;5066679;28;20445;-78
2022/03/05 03:04:54;;;;;;;12.40;7.13;;;;;;;0.27;61.27;151440.25;5044586;28;20451;-78
2022/03/05 03:07:31;;;;;;;12.30;6.93;;;;;;;0.21;61.92;151423.59;5083066;28;20429;-77
2022/03/05 03:10:07;;;;;;;8.97;5.77;;;;;;;0.23;62.00;151430.00;5069287;28;20530;-77
2022/03/05 03:12:44;;;;;;;9.50;5.97;;;;;;;0.19;62.42;151418.41;5072190;28;20462;-78
2022/03/05 03:15:19;;;;;;;9.03;6.87;;;;;;;0.16;61.63;151412.00;5070764;28;20465;-77
2022/03/05 03:17:55;;;;;;;11.40;7.07;;;;;;;0.10;62.17;151395.34;5067969;28;20466;-78
2022/03/05 03:20:30;;;;;;;9.60;6.37;;;;;;;0.13;62.12;151403.06;5065077;28;20447;-77
2022/03/05 03:23:07;;;;;;;8.20;6.30;;;;;;;0.03;62.60;151377.41;5056230;28;20527;-78
2022/03/05 03:25:43;;;;;;;11.47;6.97;;;;;;;-0.01;62.11;151369.69;5049149;28;20450;-77
2022/03/05 03:28:18;;;;;;;10.73;6.70;;;;;;;0.07;62.56;151388.94;5055297;28;20452;-78
2022/03/05 03:30:54;;;;;;;11.33;6.43;;;;;;;0.17;62.42;151413.28;5089043;28;20442;-77
2022/03/05 03:33:29;;;;;;;10.93;6.57;;;;;;;0.14;62.39;151406.88;5067419;28;20574;-77
2022/03/05 03:36:05;;;;;;;11.57;7.10;;;;;;;0.13;62.50;151404.34;5050338;28;21175;-78
2022/03/05 03:38:42;;;;;;;8.97;6.40;;;;;;;0.14;62.33;151406.88;5071156;28;20771;-77
2022/03/05 03:41:17;;;;;;;11.03;7.57;;;;;;;0.01;62.91;151373.53;5069885;28;20446;-77
2022/03/05 03:43:53;;;;;;;10.23;6.30;;;;;;;-0.04;63.52;151361.97;5069456;28;20454;-77
2022/03/05 03:46:29;;;;;;;10.07;6.67;;;;;;;-0.09;63.80;151349.16;5048073;28;20470;-77
2022/03/05 03:49:05;;;;;;;11.40;7.10;;;;;;;-0.16;63.22;151329.91;5070953;28;20570;-78
2022/03/05 03:51:40;;;;;;;9.80;6.70;;;;;;;-0.17;64.08;151328.63;5073311;28;20447;-77
2022/03/05 03:54:17;;;;;;;11.00;8.13;;;;;;;-0.15;63.89;151333.75;5058775;28;20445;-78
2022/03/05 03:56:53;;;;;;;9.23;5.97;;;;;;;-0.04;63.47;151360.69;5067480;28;20899;-77
2022/03/05 03:59:28;;;;;;;10.60;7.00;;;;;;;0.00;63.23;151372.22;5070737;28;20451;-77
2022/03/05 04:02:05;;;;;;;10.30;6.53;;;;;;;-0.06;63.39;151356.88;5052412;28;20794;-77
2022/03/05 04:04:41;;;;;;;8.97;6.47;;;;;;;-0.07;63.43;151354.28;5069955;28;20485;-77
2022/03/05 04:10:12;;;;;;;10.60;7.20;;;;;;;-0.21;63.71;151318.34;5070551;28;20975;-78
2022/03/05 04:12:47;;;;;;;6.90;6.07;;;;;;;-0.18;64.19;151326.03;5068578;28;20446;-77
2022/03/05 04:15:24;;;;;;;11.77;6.73;;;;;;;-0.20;63.88;151320.91;5071435;28;20445;-77
2022/03/05 04:17:59;;;;;;;10.10;7.20;;;;;;;-0.22;64.34;151315.81;5070632;28;20569;-77
2022/03/05 04:20:37;;;;;;;14.13;8.27;;;;;;;-0.23;64.85;151313.22;5072013;28;20839;-77
2022/03/05 04:23:12;;;;;;;11.90;7.10;;;;;;;-0.27;64.56;151302.97;5070836;28;20441;-77
2022/03/05 04:25:50;;;;;;;12.43;7.90;;;;;;;-0.37;65.20;151277.28;5071629;28;20438;-78
2022/03/05 04:28:26;;;;;;;11.40;6.87;;;;;;;-0.31;64.79;151292.69;5072808;28;20439;-77
2022/03/05 04:31:02;;;;;;;12.70;7.03;;;;;;;-0.39;65.72;151272.16;5069849;28;20493;-77
2022/03/05 04:33:38;;;;;;;12.90;8.17;;;;;;;-0.42;66.33;151263.16;5068062;28;20444;-77
2022/03/05 04:36:13;;;;;;;11.57;7.70;;;;;;;-0.47;65.70;151250.34;5064616;28;21155;-77
2022/03/05 04:38:49;;;;;;;12.30;8.00;;;;;;;-0.52;66.91;151237.53;5087936;28;20519;-77
2022/03/05 04:41:26;;;;;;;11.70;7.50;;;;;;;-0.50;66.89;151242.69;5069958;28;20858;-77
2022/03/05 04:44:02;;;;;;;10.87;6.63;;;;;;;-0.44;66.12;151259.34;5068709;28;20453;-77
2022/03/05 04:46:38;;;;;;;13.23;7.33;;;;;;;-0.36;66.23;151279.88;5070187;28;20438;-78
2022/03/05 04:49:14;;;;;;;12.43;8.20;;;;;;;-0.38;66.50;151274.75;5068107;28;20570;-78
2022/03/05 04:51:50;;;;;;;11.20;7.77;;;;;;;-0.48;67.13;151249.09;5070111;28;20434;-77
2022/03/05 04:54:29;;;;;;;10.10;7.40;;;;;;;-0.41;66.67;151267.03;5086941;28;20917;-77
2022/03/05 04:57:07;;;;;;;12.40;7.40;;;;;;;-0.47;67.70;151250.34;5052543;28;20465;-77
2022/03/05 04:59:42;;;;;;;10.40;7.33;;;;;;;-0.51;67.19;151241.41;5052832;28;20453;-77
2022/03/05 05:02:18;;;;;;;11.17;7.50;;;;;;;-0.59;67.68;151220.88;5048734;28;20453;-78
2022/03/05 05:04:53;;;;;;;14.90;8.70;;;;;;;-0.64;67.86;151209.28;5069903;28;20477;-78
2022/03/05 05:07:29;;;;;;;12.53;8.30;;;;;;;-0.73;68.80;151184.94;5072069;28;20480;-78
2022/03/05 05:10:06;;;;;;;13.53;8.30;;;;;;;-0.58;67.93;151223.41;5068351;28;20923;-77
2022/03/05 05:12:43;;;;;;;14.27;9.17;;;;;;;-0.70;68.21;151193.94;5048157;28;20875;-78
2022/03/05 05:15:18;;;;;;;15.53;9.30;;;;;;;-0.79;69.15;151169.56;5069068;28;21033;-78
2022/03/05 05:17:54;;;;;;;14.03;9.03;;;;;;;-0.67;68.84;151201.66;5068731;28;20473;-78
2022/03/05 05:20:30;;;;;;;10.50;7.80;;;;;;;-0.68;68.38;151197.78;5084962;28;20477;-77
2022/03/05 05:23:06;;;;;;;12.27;8.93;;;;;;;-0.74;68.42;151183.66;5067297;28;20446;-77
2022/03/05 05:25:42;;;;;;;12.90;9.43;;;;;;;-0.78;69.55;151173.44;5068692;28;20451;-77
2022/03/05 05:28:19;;;;;;;16.10;9.07;;;;;;;-0.75;69.25;151181.13;5071872;28;21010;-77
2022/03/05 05:30:54;;;;;;;13.80;9.00;;;;;;;-0.78;69.74;151172.13;5069148;28;20943;-77
2022/03/05 05:33:30;;;;;;;15.17;9.20;;;;;;;-0.59;68.91;151219.59;5066783;28;20445;-78
2022/03/05 05:36:06;;;;;;;15.43;9.03;;;;;;;-0.70;69.43;151192.66;5081950;28;20449;-78
2022/03/05 05:38:41;;;;;;;17.23;9.97;;;;;;;-0.78;69.50;151172.13;5071170;28;20498;-77
2022/03/05 05:41:18;;;;;;;16.57;9.00;;;;;;;-0.86;70.65;151152.91;5067346;28;20449;-77
2022/03/05 05:43:55;;;;;;;14.27;9.47;;;;;;;-0.89;70.56;151143.91;5067998;28;20463;-77
2022/03/05 05:46:30;;;;;;;17.90;9.77;;;;;;;-0.99;70.71;151118.28;5067227;28;20536;-77
2022/03/05 05:49:06;;;;;;;14.60;9.27;;;;;;;-0.99;70.98;151118.28;5046032;28;20481;-77
2022/03/05 05:51:43;;;;;;;16.70;10.50;;;;;;;-1.05;71.64;151102.88;5040950;28;20530;-77
2022/03/05 05:54:18;;;;;;;16.77;9.90;;;;;;;-0.95;71.49;151128.50;5051284;28;20459;-77
2022/03/05 05:56:54;;;;;;;18.27;11.20;;;;;;;-0.96;71.36;151125.97;5066360;28;20434;-77
2022/03/05 05:59:31;;;;;;;14.90;9.20;;;;;;;-0.96;72.16;151125.97;5043659;28;20473;-78
2022/03/05 06:02:09;;;;;;;14.63;10.33;;;;;;;-1.05;71.61;151102.88;5063342;28;20452;-77
2022/03/05 06:04:45;;;;;;;13.27;9.67;;;;;;;-1.09;72.09;151093.94;5066231;28;20499;-78
2022/03/05 06:07:20;;;;;;;13.17;9.90;;;;;;;-1.08;71.86;151095.19;5067645;28;20434;-77
2022/03/05 06:09:56;;;;;;;13.73;9.50;;;;;;;-1.13;72.60;151082.38;5060012;28;21064;-77
2022/03/05 06:12:32;;;;;;;17.23;10.47;;;;;;;-1.14;72.76;151081.13;5058477;28;20780;-77
2022/03/05 06:15:10;;;;;;;18.30;11.20;;;;;;;-1.14;72.68;151079.84;5050893;28;20536;-77
2022/03/05 06:17:46;;;;;;;15.70;11.30;;;;;;;-1.03;73.24;151109.28;5063947;28;20491;-77
2022/03/05 06:20:23;;;;;;;17.17;12.17;;;;;;;-0.97;72.43;151123.41;5064024;28;21347;-77
2022/03/05 06:22:59;;;;;;;16.13;10.47;;;;;;;-0.96;72.96;151125.97;5064910;28;20468;-77
2022/03/05 06:25:35;;;;;;;18.07;12.13;;;;;;;-0.84;72.83;151156.72;5073619;28;20476;-77
2022/03/05 06:28:10;;;;;;;18.80;12.10;;;;;;;-0.75;72.72;151179.84;5064760;28;20449;-78
2022/03/05 06:30:47;;;;;;;16.33;10.53;;;;;;;-0.63;72.24;151210.59;5044126;28;20464;-78
2022/03/05 06:33:24;;;;;;;16.50;10.90;;;;;;;-0.49;72.02;151246.53;5063924;28;20451;-78
2022/03/05 06:36:00;;;;;;;16.03;10.63;;;;;;;-0.46;71.87;151254.22;5066135;28;20481;-77
2022/03/05 06:38:35;;;;;;;18.57;12.70;;;;;;;-0.37;71.99;151277.28;5051057;28;20514;-77
2022/03/05 06:41:11;;;;;;;21.90;13.87;;;;;;;-0.30;71.00;151295.28;5063168;28;20445;-77
2022/03/05 06:43:47;;;;;;;20.27;12.40;;;;;;;-0.31;71.66;151292.69;5063816;28;20465;-77
2022/03/05 06:46:24;;;;;;;20.13;11.77;;;;;;;-0.04;70.22;151361.97;5064239;28;20461;-77
2022/03/05 06:48:59;;;;;;;17.57;11.97;;;;;;;0.07;69.89;151387.63;5069152;28;21023;-77
2022/03/05 06:51:34;;;;;;;15.63;10.43;;;;;;;0.29;69.08;151444.13;5066285;28;20518;-77
2022/03/05 06:54:10;;;;;;;15.33;11.03;;;;;;;0.31;68.61;151449.25;5085838;28;20442;-77
2022/03/05 06:56:45;;;;;;;17.57;11.60;;;;;;;0.57;68.61;151516.00;5069481;28;20534;-77
2022/03/05 06:59:21;;;;;;;15.43;10.03;;;;;;;0.79;67.77;151571.22;5066129;28;20476;-77
2022/03/05 07:01:58;;;;;;;16.03;11.77;;;;;;;1.08;67.01;151647.00;5069701;28;20452;-77
2022/03/05 07:04:34;;;;;;;18.20;10.67;;;;;;;1.30;65.94;151700.94;5066699;28;20485;-77
2022/03/05 07:07:10;;;;;;;17.03;10.60;;;;;;;1.50;65.43;151752.31;5067614;28;20449;-77
2022/03/05 07:09:45;;;;;;;17.07;11.23;;;;;;;1.48;64.33;151747.19;5066657;28;20816;-77
2022/03/05 07:12:21;;;;;;;17.47;10.50;;;;;;;1.45;64.20;151739.47;5050853;28;20552;-77
2022/03/05 07:14:58;;;;;;;15.07;10.73;;;;;;;1.72;63.51;151808.88;5085552;28;20434;-78
2022/03/05 07:17:34;;;;;;;17.37;12.50;;;;;;;1.67;63.73;151797.28;5058537;28;20519;-77
2022/03/05 07:20:11;;;;;;;17.77;11.23;;;;;;;1.92;62.80;151858.97;5067614;28;20472;-77
2022/03/05 07:22:47;;;;;;;13.67;10.33;;;;;;;2.00;62.58;151880.84;5071216;28;20443;-77
2022/03/05 07:25:23;;;;;;;18.37;11.23;;;;;;;2.09;63.16;151902.72;5052825;28;21165;-77
2022/03/05 07:27:59;;;;;;;17.20;10.27;;;;;;;2.35;62.63;151970.84;5047858;28;20495;-77
2022/03/05 07:30:34;;;;;;;18.63;11.17;;;;;;;2.43;61.72;151990.13;5044332;28;20447;-77
2022/03/05 07:33:11;;;;;;;16.20;11.37;;;;;;;2.56;61.48;152023.56;5058276;28;20480;-77
2022/03/05 07:35:47;;;;;;;16.97;10.53;;;;;;;2.79;60.91;152082.72;5066601;28;20445;-77
2022/03/05 07:38:23;;;;;;;17.80;11.73;;;;;;;2.90;60.56;152111.03;5065267;28;20482;-78
2022/03/05 07:40:58;;;;;;;21.90;11.63;;;;;;;3.03;59.38;152143.19;5065961;28;20855;-78
2022/03/05 07:43:34;;;;;;;16.03;11.70;;;;;;;2.83;59.60;152091.75;5064323;28;20453;-78
2022/03/05 07:46:09;;;;;;;18.37;12.20;;;;;;;3.18;59.05;152181.78;5066753;28;20436;-78
2022/03/05 07:48:46;;;;;;;17.53;11.17;;;;;;;3.21;59.58;152189.50;5049629;28;20868;-78
2022/03/05 07:51:22;;;;;;;14.20;11.03;;;;;;;3.26;58.58;152202.38;5053584;28;20800;-77
2022/03/05 07:53:57;;;;;;;21.60;12.80;;;;;;;3.39;58.89;152235.81;5061767;28;20456;-78
2022/03/05 07:56:33;;;;;;;15.70;11.50;;;;;;;3.45;58.35;152251.28;5055256;28;21205;-78
2022/03/05 07:59:08;;;;;;;15.90;12.60;;;;;;;3.27;58.26;152204.97;5069269;28;20513;-78
2022/03/05 08:01:44;;;;;;;18.90;11.00;;;;;;;3.45;58.69;152251.28;5066632;28;20456;-78
2022/03/05 08:04:24;;;;;;;22.83;12.87;;;;;;;3.54;58.83;152274.47;5087180;28;20499;-79
2022/03/05 08:06:59;;;;;;;14.87;12.23;;;;;;;3.64;57.55;152300.22;5061910;28;20450;-78
2022/03/05 08:09:36;;;;;;;16.70;11.23;;;;;;;3.77;58.18;152331.09;5068796;28;20479;-79
2022/03/05 08:12:12;;;;;;;16.77;11.53;;;;;;;3.77;58.10;152331.09;5066478;28;20461;-79
2022/03/05 08:14:48;;;;;;;19.33;10.80;;;;;;;3.93;57.27;152372.28;5068948;28;20570;-79
2022/03/05 08:17:24;;;;;;;17.10;12.50;;;;;;;4.28;57.07;152463.75;5066138;28;20440;-79
2022/03/05 08:20:01;;;;;;;15.00;10.80;;;;;;;3.72;57.23;152318.22;5082472;28;20480;-79
2022/03/05 08:22:38;;;;;;;15.17;10.70;;;;;;;3.78;57.90;152333.69;5064903;28;20448;-79
2022/03/05 08:25:14;;;;;;;13.07;10.50;;;;;;;3.60;58.49;152288.66;5067013;28;20459;-79
2022/03/05 08:27:49;;;;;;;16.73;11.90;;;;;;;3.64;58.51;152298.91;5066879;28;20462;-79
2022/03/05 08:30:25;;;;;;;16.47;12.37;;;;;;;3.65;57.87;152302.75;5067798;28;20501;-79
2022/03/05 08:33:01;;;;;;;23.30;13.10;;;;;;;3.62;59.21;152295.06;5066228;28;20446;-79
2022/03/05 08:35:38;;;;;;;15.70;11.13;;;;;;;3.50;57.96;152264.16;5045251;28;20456;-79
2022/03/05 08:38:13;;;;;;;19.90;12.50;;;;;;;3.05;59.62;152148.31;5048753;28;20928;-79
2022/03/05 08:40:49;;;;;;;17.03;11.73;;;;;;;3.34;59.43;152222.97;5065741;28;20440;-79
2022/03/05 08:43:24;;;;;;;17.10;11.33;;;;;;;3.58;58.88;152283.47;5084944;28;20939;-79
2022/03/05 08:46:01;;;;;;;14.73;9.43;;;;;;;3.24;58.67;152195.94;5052120;28;20448;-79
2022/03/05 08:48:36;;;;;;;19.40;11.30;;;;;;;3.09;59.23;152158.66;5069840;28;20462;-79
2022/03/05 08:51:13;;;;;;;17.50;12.03;;;;;;;3.01;60.05;152139.34;5066946;28;20448;-80
2022/03/05 08:53:49;;;;;;;19.03;11.40;;;;;;;3.37;59.67;152230.69;5083830;28;20975;-79
2022/03/05 08:56:25;;;;;;;14.90;11.73;;;;;;;3.27;59.38;152204.97;5049338;28;20467;-79
2022/03/05 08:59:00;;;;;;;15.07;10.27;;;;;;;3.26;60.41;152202.38;5068559;28;20503;-79
2022/03/05 09:01:36;;;;;;;12.90;9.40;;;;;;;3.19;59.64;152184.38;5069749;28;20484;-79
2022/03/05 09:04:12;;;;;;;18.27;11.50;;;;;;;3.23;59.89;152194.63;5070330;28;20497;-79
2022/03/05 09:06:49;;;;;;;16.57;11.37;;;;;;;3.30;59.91;152212.69;5084848;28;22353;-79
2022/03/05 09:09:25;;;;;;;16.93;11.80;;;;;;;3.17;59.60;152179.22;5089027;28;20440;-79
2022/03/05 09:12:00;;;;;;;14.77;10.40;;;;;;;3.33;58.80;152220.41;5066829;28;20454;-80
2022/03/05 09:14:36;;;;;;;19.00;11.13;;;;;;;3.39;59.24;152234.59;5085970;28;20440;-79
2022/03/05 09:17:11;;;;;;;14.27;9.40;;;;;;;3.39;59.20;152235.81;5049622;28;20448;-79
2022/03/05 09:19:47;;;;;;;16.83;10.90;;;;;;;3.57;58.60;152282.16;5068883;28;20475;-79
2022/03/05 09:22:24;;;;;;;14.30;10.80;;;;;;;3.48;58.05;152257.72;5051749;28;20434;-80
2022/03/05 09:25:00;;;;;;;16.63;11.90;;;;;;;3.47;59.05;152255.13;5084742;28;20427;-80
2022/03/05 09:27:35;;;;;;;15.10;10.73;;;;;;;3.60;58.79;152289.88;5065651;28;20448;-79
2022/03/05 09:30:11;;;;;;;16.00;10.57;;;;;;;3.37;59.57;152229.41;5049763;28;20447;-79
2022/03/05 09:32:47;;;;;;;15.40;10.67;;;;;;;3.28;58.68;152207.56;5067964;28;20974;-79
2022/03/05 09:35:24;;;;;;;14.57;10.23;;;;;;;3.50;58.52;152264.16;5049380;28;20434;-79
2022/03/05 09:38:01;;;;;;;15.40;11.23;;;;;;;3.43;57.57;152246.16;5068213;28;20808;-79
2022/03/05 09:40:36;;;;;;;12.60;8.70;;;;;;;3.75;56.48;152325.94;5068293;28;20467;-79
2022/03/05 09:43:12;;;;;;;15.43;9.43;;;;;;;3.67;56.74;152306.66;5070041;28;20452;-79
2022/03/05 09:45:48;;;;;;;14.80;10.77;;;;;;;3.50;56.84;152264.16;5080870;28;20483;-79
2022/03/05 09:48:24;;;;;;;15.73;9.60;;;;;;;3.84;56.38;152349.16;5080585;28;20456;-79
2022/03/05 09:51:00;;;;;;;16.03;9.63;;;;;;;3.95;55.41;152377.44;5085688;28;20440;-79
2022/03/05 09:53:36;;;;;;;14.27;9.63;;;;;;;3.82;55.79;152343.97;5048488;28;20811;-79
2022/03/05 09:56:12;;;;;;;14.20;10.40;;;;;;;4.00;55.04;152391.59;5062646;28;20449;-80
2022/03/05 09:58:48;;;;;;;12.67;8.90;;;;;;;3.88;54.01;152359.44;5064730;28;20481;-79
2022/03/05 10:01:24;;;;;;;15.20;9.23;;;;;;;3.64;54.43;152298.91;5064133;28;20464;-79
2022/03/05 10:04:02;;;;;;;13.30;9.77;;;;;;;3.73;54.54;152320.81;5085359;28;20445;-79
2022/03/05 10:06:37;;;;;;;11.57;7.50;;;;;;;3.98;53.03;152385.16;5065173;28;20445;-79
2022/03/05 10:09:22;;;;;;;12.97;8.80;;;;;;;4.03;54.28;152398.03;5060694;28;20451;-79
2022/03/05 10:11:58;;;;;;;14.17;8.67;;;;;;;4.03;53.11;152398.03;5065986;28;20453;-79
2022/03/05 10:14:33;;;;;;;11.23;8.07;;;;;;;4.03;52.58;152398.03;5082490;28;20441;-79
2022/03/05 10:17:11;;;;;;;9.97;7.23;;;;;;;3.86;51.70;152354.28;5069235;28;20441;-79
2022/03/05 10:19:46;;;;;;;12.07;8.10;;;;;;;3.81;51.54;152342.72;5066499;28;20571;-79
2022/03/05 10:22:22;;;;;;;13.70;7.60;;;;;;;4.02;52.00;152395.50;5066228;28;20436;-79
2022/03/05 10:24:59;;;;;;;10.87;7.23;;;;;;;3.91;50.76;152368.47;5070314;28;20723;-79
2022/03/05 10:27:35;;;;;;;14.43;8.23;;;;;;;4.18;51.20;152437.97;5084617;28;20423;-79
2022/03/05 10:30:11;;;;;;;10.13;6.53;;;;;;;4.30;50.03;152468.91;5067132;28;20444;-79
2022/03/05 10:32:46;;;;;;;8.27;6.70;;;;;;;4.25;48.66;152454.72;5064842;28;20530;-79
2022/03/05 10:35:22;;;;;;;12.03;7.60;;;;;;;4.21;49.04;152444.41;5068289;28;20450;-80
2022/03/05 10:37:58;;;;;;;8.57;5.80;;;;;;;4.16;49.47;152432.81;5070078;28;20455;-79
2022/03/05 10:40:36;;;;;;;11.73;8.00;;;;;;;4.05;49.33;152404.47;5068033;28;20460;-78
2022/03/05 10:43:12;;;;;;;11.57;6.40;;;;;;;4.36;48.48;152481.78;5068852;28;20448;-78
2022/03/05 10:45:52;;;;;;;9.53;6.63;;;;;;;4.28;48.31;152463.75;5085594;28;20455;-78
2022/03/05 10:48:30;;;;;;;7.63;5.70;;;;;;;4.31;47.88;152470.19;5068776;28;20979;-80
2022/03/05 10:51:11;;;;;;;9.70;6.00;;;;;;;4.47;48.62;152511.41;5084145;28;20812;-80
2022/03/05 10:53:48;;;;;;;8.30;6.23;;;;;;;4.30;48.34;152467.59;5066397;28;20457;-80
2022/03/05 10:56:34;;;;;;;9.67;5.80;;;;;;;4.59;48.68;152542.31;5047054;28;20828;-80
2022/03/05 10:59:11;;;;;;;9.13;7.40;;;;;;;4.53;48.63;152526.84;5068483;28;20495;-80
2022/03/05 11:01:47;;;;;;;10.23;7.33;;;;;;;4.48;48.23;152512.66;5060084;28;20939;-80
2022/03/05 11:04:24;;;;;;;9.43;6.67;;;;;;;4.46;48.24;152508.81;5066845;28;20452;-78
2022/03/05 11:06:59;;;;;;;13.10;8.03;;;;;;;4.50;47.76;152519.09;5064505;28;20535;-78
2022/03/05 11:09:37;;;;;;;11.20;7.60;;;;;;;4.54;48.55;152529.44;5050955;28;20445;-80
2022/03/05 11:12:16;;;;;;;10.33;5.53;;;;;;;4.54;46.86;152529.44;5065396;28;20459;-80
2022/03/05 11:14:53;;;;;;;11.77;7.27;;;;;;;4.46;47.66;152507.53;5082951;28;20503;-80
2022/03/05 11:17:28;;;;;;;28.37;7.93;;;;;;;4.59;47.62;152542.31;5063905;28;20455;-80
2022/03/05 11:20:05;;;;;;;9.80;7.10;;;;;;;4.71;48.29;152573.22;5083254;28;20468;-80
2022/03/05 11:22:41;;;;;;;10.93;7.23;;;;;;;4.86;46.64;152611.91;5071131;28;20944;-78
2022/03/05 11:25:19;;;;;;;8.70;6.13;;;;;;;4.79;45.23;152593.84;5051807;28;21097;-79
2022/03/05 11:28:01;;;;;;;7.37;6.03;;;;;;;4.65;45.42;152557.78;5066256;28;20448;-79
2022/03/05 11:30:40;;;;;;;8.70;6.50;;;;;;;4.61;45.39;152547.47;5068244;28;20476;-79
2022/03/05 11:33:22;;;;;;;11.33;6.60;;;;;;;4.55;45.75;152532.03;5050669;28;21142;-79
2022/03/05 11:36:03;;;;;;;12.60;8.20;;;;;;;4.68;45.36;152565.53;5056163;28;21202;-79
2022/03/05 11:38:40;;;;;;;7.47;4.83;;;;;;;4.84;45.35;152605.47;5067743;28;20453;-79
2022/03/05 11:41:25;;;;;;;9.97;7.00;;;;;;;4.80;45.21;152595.13;5083052;28;20451;-79
2022/03/05 11:44:14;;;;;;;7.77;6.30;;;;;;;4.81;45.95;152599.03;5053537;28;20483;-79
2022/03/05 11:46:49;;;;;;;9.40;6.20;;;;;;;5.21;45.33;152699.56;5056300;28;20507;-79
2022/03/05 11:49:26;;;;;;;12.03;7.47;;;;;;;5.14;44.65;152681.47;5052571;28;20469;-79
2022/03/05 11:52:03;;;;;;;18.60;7.10;;;;;;;5.30;45.30;152724.03;5083833;28;20451;-79
2022/03/05 11:54:39;;;;;;;13.17;6.33;;;;;;;5.31;44.13;152726.63;5070735;28;20804;-79
2022/03/05 11:57:15;;;;;;;7.80;6.20;;;;;;;5.30;44.87;152722.72;5080263;28;20865;-79
2022/03/05 11:59:54;;;;;;;11.50;7.93;;;;;;;5.11;44.58;152673.78;5070425;28;20480;-79
2022/03/05 12:02:41;;;;;;;9.97;7.07;;;;;;;5.27;44.57;152716.28;5069799;28;21398;-79
2022/03/05 12:05:51;;;;;;;9.63;6.67;;;;;;;5.16;44.73;152686.66;5070960;28;20522;-79
2022/03/05 12:08:44;;;;;;;10.77;7.10;;;;;;;5.41;44.13;152751.09;5067268;28;20488;-79